Terminal Aerodrome Forecast
Issued by NWS Dodge City, KS

Home | Current Version | Previous Version | Graphics & Text | Print | Product List | Glossary Off
Versions: 1 2 3 4 5 6 7 8 9 10 11 12 13 14 15 16

000
FTUS43 KDDC 150950 AAB
TAFDDC
TAF AMD
KDDC 150950Z 1510/1606 35012KT P6SM SKC
     FM151500 01015G25KT P6SM SKC
     FM151800 01010KT P6SM SKC
     FM152100 VRB05KT P6SM SKC
     FM160300 16009KT P6SM SKC=

USA.gov is the U.S. government's official web portal to all federal, state and local government web resources and services.